createdAt,value
2022-11-13T00:02:30.718Z,6.98
2022-11-13T00:05:17.773Z,6.88
2022-11-13T00:08:05.394Z,6.87
2022-11-13T00:10:53.644Z,6.77
2022-11-13T00:13:41.026Z,6.93
2022-11-13T00:16:29.417Z,6.90
2022-11-13T00:19:16.532Z,6.85
2022-11-13T00:22:03.565Z,6.73
2022-11-13T00:24:50.432Z,6.56
2022-11-13T00:27:37.572Z,6.65
2022-11-13T00:30:24.123Z,6.60
2022-11-13T00:33:16.324Z,6.50
2022-11-13T00:36:18.039Z,6.53
2022-11-13T00:39:05.401Z,6.45
2022-11-13T00:41:52.419Z,6.50
2022-11-13T00:44:39.188Z,6.60
2022-11-13T00:47:25.916Z,6.61
2022-11-13T00:50:14.457Z,6.72
2022-11-13T00:53:01.533Z,6.77
2022-11-13T00:55:49.078Z,6.69
2022-11-13T00:58:36.796Z,6.75
2022-11-13T01:01:25.535Z,6.71
2022-11-13T01:04:12.452Z,6.51
2022-11-13T01:07:00.551Z,6.40
2022-11-13T01:09:51.603Z,6.50
2022-11-13T01:12:39.433Z,6.40
2022-11-13T01:15:26.538Z,6.13
2022-11-13T01:18:14.680Z,6.15
2022-11-13T01:21:08.743Z,6.16
2022-11-13T01:23:58.668Z,6.18
2022-11-13T01:26:45.447Z,6.24
2022-11-13T01:29:32.424Z,6.35
2022-11-13T01:32:20.675Z,6.37
2022-11-13T01:35:09.249Z,6.36
2022-11-13T01:37:57.014Z,6.44
2022-11-13T01:40:48.272Z,6.42
2022-11-13T01:43:39.203Z,6.42
2022-11-13T01:46:33.954Z,6.28
2022-11-13T01:49:31.950Z,6.30
2022-11-13T01:52:24.319Z,6.32
2022-11-13T01:55:14.967Z,6.30
2022-11-13T01:58:06.160Z,6.21
2022-11-13T02:00:53.196Z,6.18
2022-11-13T02:03:40.426Z,6.22
2022-11-13T02:06:33.871Z,6.12
2022-11-13T02:09:27.631Z,6.18
2022-11-13T02:12:18.463Z,6.23
2022-11-13T02:15:09.513Z,5.98
2022-11-13T02:17:59.439Z,5.74
2022-11-13T02:20:56.211Z,5.72
2022-11-13T02:23:51.826Z,5.68
2022-11-13T02:26:41.160Z,5.59
2022-11-13T02:29:28.500Z,5.56
2022-11-13T02:32:15.635Z,5.36
2022-11-13T02:35:03.753Z,5.33
2022-11-13T02:37:51.404Z,5.43
2022-11-13T02:40:39.303Z,5.58
2022-11-13T02:43:27.899Z,5.49
2022-11-13T02:46:16.049Z,5.35
2022-11-13T02:49:03.184Z,5.40
2022-11-13T02:51:50.048Z,5.41
2022-11-13T02:54:36.859Z,5.49
2022-11-13T02:57:23.671Z,5.56
2022-11-13T03:00:14.492Z,5.75
2022-11-13T03:03:01.129Z,5.78
2022-11-13T03:05:50.599Z,5.67
2022-11-13T03:08:38.118Z,5.67
2022-11-13T03:11:25.340Z,5.68
2022-11-13T03:14:12.172Z,5.71
2022-11-13T03:17:02.006Z,5.78
2022-11-13T03:19:48.831Z,5.70
2022-11-13T03:22:35.623Z,5.83
2022-11-13T03:25:22.498Z,5.83
2022-11-13T03:28:09.630Z,5.75
2022-11-13T03:30:56.840Z,5.62
2022-11-13T03:33:44.835Z,5.43
2022-11-13T03:36:32.202Z,5.33
2022-11-13T03:39:19.145Z,5.21
2022-11-13T03:42:06.234Z,5.14
2022-11-13T03:44:53.420Z,5.20
2022-11-13T03:47:40.036Z,5.16
2022-11-13T03:50:28.449Z,5.10
2022-11-13T03:53:16.500Z,5.19
2022-11-13T03:56:03.096Z,5.08
2022-11-13T03:58:50.259Z,5.19
2022-11-13T04:01:37.091Z,5.24
2022-11-13T04:04:24.105Z,5.26
2022-11-13T04:07:12.919Z,4.87
2022-11-13T04:10:00.772Z,4.91
2022-11-13T04:12:47.699Z,4.96
2022-11-13T04:15:34.831Z,5.00
2022-11-13T04:18:22.777Z,4.97
2022-11-13T04:21:10.484Z,4.93
2022-11-13T04:23:58.555Z,4.82
2022-11-13T04:26:45.814Z,4.90
2022-11-13T04:29:33.039Z,4.74
2022-11-13T04:32:20.471Z,4.72
2022-11-13T04:35:09.069Z,4.87
2022-11-13T04:37:56.220Z,4.90
2022-11-13T04:40:44.914Z,4.99
2022-11-13T04:43:30.462Z,5.04
2022-11-13T04:46:17.290Z,4.98
2022-11-13T04:49:04.837Z,4.98
2022-11-13T04:51:52.500Z,4.97
2022-11-13T04:54:39.835Z,4.90
2022-11-13T04:57:28.381Z,4.73
2022-11-13T05:00:15.765Z,4.78
2022-11-13T05:03:02.882Z,4.79
2022-11-13T05:05:50.529Z,4.82
2022-11-13T05:08:38.037Z,4.86
2022-11-13T05:11:24.932Z,4.89
2022-11-13T05:14:14.914Z,4.93
2022-11-13T05:17:02.867Z,4.98
2022-11-13T05:19:49.895Z,4.98
2022-11-13T05:22:37.058Z,4.95
2022-11-13T05:25:23.883Z,4.82
2022-11-13T05:28:10.748Z,4.50
2022-11-13T05:31:07.652Z,4.54
2022-11-13T05:33:58.075Z,4.41
2022-11-13T05:36:48.979Z,4.57
2022-11-13T05:39:35.853Z,4.63
2022-11-13T05:42:23.785Z,4.55
2022-11-13T05:45:12.707Z,4.64
2022-11-13T05:48:01.060Z,4.70
2022-11-13T05:50:48.432Z,4.71
2022-11-13T05:53:36.693Z,4.70
2022-11-13T05:56:26.148Z,4.74
2022-11-13T05:59:13.460Z,4.73
2022-11-13T06:02:00.692Z,4.72
2022-11-13T06:04:50.674Z,4.60
2022-11-13T06:07:38.878Z,4.10
2022-11-13T06:10:25.484Z,3.95
2022-11-13T06:13:12.203Z,4.01
2022-11-13T06:16:02.919Z,4.04
2022-11-13T06:18:51.481Z,4.11
2022-11-13T06:21:41.639Z,4.16
2022-11-13T06:24:29.180Z,4.31
2022-11-13T06:27:16.143Z,4.40
2022-11-13T06:30:03.260Z,4.25
2022-11-13T06:32:54.232Z,4.30
2022-11-13T06:35:42.158Z,4.41
2022-11-13T06:38:33.551Z,4.50
2022-11-13T06:41:22.391Z,4.54
2022-11-13T06:44:09.467Z,4.43
2022-11-13T06:46:56.290Z,4.34
2022-11-13T06:49:43.219Z,4.09
2022-11-13T06:52:30.289Z,3.96
2022-11-13T06:55:18.621Z,4.04
2022-11-13T06:58:05.433Z,3.82
2022-11-13T07:00:53.049Z,3.85
2022-11-13T07:03:40.186Z,3.99
2022-11-13T07:06:27.773Z,3.95
2022-11-13T07:09:14.950Z,4.04
2022-11-13T07:12:03.431Z,4.17
2022-11-13T07:14:50.606Z,4.29
2022-11-13T07:17:37.567Z,4.42
2022-11-13T07:20:24.721Z,4.18
2022-11-13T07:23:12.033Z,4.20
2022-11-13T07:25:58.858Z,3.97
2022-11-13T07:28:48.653Z,3.93
2022-11-13T07:31:35.716Z,4.19
2022-11-13T07:34:23.557Z,4.35
2022-11-13T07:37:10.439Z,4.46
2022-11-13T07:39:57.819Z,4.55
2022-11-13T07:42:45.320Z,4.63
2022-11-13T07:45:34.310Z,4.75
2022-11-13T07:48:21.502Z,4.74
2022-11-13T07:51:08.449Z,4.79
2022-11-13T07:53:55.450Z,4.86
2022-11-13T07:56:41.847Z,4.91
2022-11-13T07:59:29.119Z,4.85
2022-11-13T08:02:21.141Z,4.96
2022-11-13T08:05:10.838Z,5.14
2022-11-13T08:07:57.597Z,5.39
2022-11-13T08:10:44.623Z,5.48
2022-11-13T08:13:31.605Z,5.63
2022-11-13T08:16:18.450Z,5.78
2022-11-13T08:19:06.744Z,5.92
2022-11-13T08:21:53.725Z,5.99
2022-11-13T08:24:41.525Z,6.15
2022-11-13T08:27:28.223Z,6.37
2022-11-13T08:30:16.229Z,6.50
2022-11-13T08:33:04.688Z,6.64
2022-11-13T08:35:57.708Z,6.87
2022-11-13T08:38:44.804Z,6.89
2022-11-13T08:41:31.999Z,6.92
2022-11-13T08:44:19.501Z,6.87
2022-11-13T08:47:06.751Z,6.89
2022-11-13T08:49:53.706Z,7.11
2022-11-13T08:52:43.171Z,7.16
2022-11-13T08:55:30.374Z,7.33
2022-11-13T08:58:17.576Z,7.47
2022-11-13T09:01:05.619Z,7.63
2022-11-13T09:03:52.994Z,7.85
2022-11-13T09:06:40.084Z,7.92
2022-11-13T09:09:28.695Z,8.11
2022-11-13T09:12:16.485Z,8.37
2022-11-13T09:15:03.381Z,8.54
2022-11-13T09:17:50.024Z,8.76
2022-11-13T09:20:36.479Z,8.88
2022-11-13T09:23:23.990Z,8.94
2022-11-13T09:26:12.654Z,8.94
2022-11-13T09:28:59.379Z,9.01
2022-11-13T09:31:46.311Z,9.13
2022-11-13T09:34:34.726Z,9.19
2022-11-13T09:37:22.828Z,9.26
2022-11-13T09:40:17.802Z,9.34
2022-11-13T09:43:14.398Z,9.48
2022-11-13T09:46:07.096Z,9.49
2022-11-13T09:48:57.179Z,9.47
2022-11-13T09:51:51.396Z,9.62
2022-11-13T09:54:39.649Z,9.79
2022-11-13T09:57:36.794Z,9.95
2022-11-13T10:00:25.626Z,10.06
2022-11-13T10:04:00.550Z,10.22
2022-11-13T10:07:01.618Z,10.37
2022-11-13T10:10:15.698Z,10.43
2022-11-13T10:13:03.539Z,10.47
2022-11-13T10:15:56.720Z,10.57
2022-11-13T10:18:45.982Z,10.69
2022-11-13T10:21:38.499Z,10.79
2022-11-13T10:24:29.055Z,10.93
2022-11-13T10:27:16.603Z,10.98
2022-11-13T10:30:03.963Z,11.03
2022-11-13T10:32:52.763Z,11.06
2022-11-13T10:35:57.028Z,11.21
2022-11-13T10:38:47.949Z,11.29
2022-11-13T10:41:45.467Z,11.32
2022-11-13T10:44:36.309Z,11.45
2022-11-13T10:50:35.539Z,11.55
2022-11-13T10:53:22.864Z,11.72
2022-11-13T10:56:23.514Z,11.89
2022-11-13T10:59:14.450Z,11.94
2022-11-13T11:02:18.052Z,12.00
2022-11-13T11:05:16.769Z,12.14
2022-11-13T11:08:11.641Z,12.37
2022-11-13T11:11:19.457Z,12.43
2022-11-13T11:14:21.188Z,12.41
2022-11-13T11:17:10.467Z,12.59
2022-11-13T11:20:04.911Z,12.65
2022-11-13T11:22:58.778Z,12.72
2022-11-13T11:25:53.711Z,12.82
2022-11-13T11:28:49.049Z,12.75
2022-11-13T11:31:43.026Z,12.76
2022-11-13T11:34:37.388Z,12.79
2022-11-13T11:37:29.368Z,12.84
2022-11-13T11:40:25.399Z,12.92
2022-11-13T11:43:21.851Z,12.95
2022-11-13T11:46:13.362Z,12.98
2022-11-13T11:49:02.567Z,13.14
2022-11-13T11:52:05.771Z,13.26
2022-11-13T11:55:03.409Z,13.29
2022-11-13T11:57:59.366Z,13.43
2022-11-13T12:00:53.605Z,13.41
2022-11-13T12:04:07.516Z,13.49
2022-11-13T12:07:08.448Z,13.60
2022-11-13T12:10:05.600Z,13.59
2022-11-13T12:13:09.275Z,13.57
2022-11-13T12:16:09.484Z,13.60
2022-11-13T12:19:05.234Z,13.70
2022-11-13T12:22:06.722Z,13.83
2022-11-13T12:25:11.004Z,13.93
2022-11-13T12:28:07.276Z,14.10
2022-11-13T12:31:10.657Z,14.12
2022-11-13T12:34:03.290Z,14.12
2022-11-13T12:36:51.995Z,14.28
2022-11-13T12:39:48.146Z,14.46
2022-11-13T12:42:40.904Z,14.44
2022-11-13T12:45:52.081Z,14.62
2022-11-13T12:48:43.651Z,14.61
2022-11-13T12:51:41.035Z,14.74
2022-11-13T12:54:31.985Z,14.97
2022-11-13T12:57:30.053Z,15.02
2022-11-13T13:00:27.764Z,15.33
2022-11-13T13:03:37.690Z,15.41
2022-11-13T13:06:48.258Z,15.67
2022-11-13T13:09:50.950Z,15.60
2022-11-13T13:12:50.502Z,15.47
2022-11-13T13:15:40.683Z,15.68
2022-11-13T13:18:31.589Z,15.63
2022-11-13T13:21:21.470Z,15.82
2022-11-13T13:24:28.526Z,15.96
2022-11-13T13:27:26.373Z,15.95
2022-11-13T13:30:22.301Z,15.92
2022-11-13T13:33:23.162Z,15.81
2022-11-13T13:36:22.912Z,15.64
2022-11-13T13:39:27.049Z,15.69
2022-11-13T13:42:54.436Z,16.04
2022-11-13T13:45:54.895Z,16.04
2022-11-13T13:48:45.696Z,16.03
2022-11-13T13:51:39.868Z,15.97
2022-11-13T13:54:32.423Z,15.96
2022-11-13T13:57:19.728Z,16.00
2022-11-13T14:00:13.675Z,16.03
2022-11-13T14:03:00.809Z,16.07
2022-11-13T14:05:47.457Z,16.18
2022-11-13T14:08:34.785Z,15.89
2022-11-13T14:11:27.101Z,15.88
2022-11-13T14:14:20.453Z,15.61
2022-11-13T14:17:08.114Z,15.86
2022-11-13T14:20:00.724Z,15.80
2022-11-13T14:22:55.061Z,15.89
2022-11-13T14:25:44.788Z,16.01
2022-11-13T14:28:35.086Z,15.94
2022-11-13T14:31:29.840Z,15.77
2022-11-13T14:34:24.717Z,15.78
2022-11-13T14:37:27.002Z,15.96
2022-11-13T14:40:23.550Z,15.96
2022-11-13T14:43:20.631Z,15.95
2022-11-13T14:46:31.897Z,15.76
2022-11-13T14:49:30.946Z,15.67
2022-11-13T14:52:26.109Z,15.51
2022-11-13T14:55:23.460Z,15.57
2022-11-13T14:58:15.164Z,15.49
2022-11-13T15:01:17.129Z,15.44
2022-11-13T15:04:04.112Z,15.11
2022-11-13T15:06:55.409Z,15.02
2022-11-13T15:09:42.398Z,14.97
2022-11-13T15:12:29.450Z,14.79
2022-11-13T15:15:19.007Z,14.61
2022-11-13T15:18:09.380Z,14.56
2022-11-13T15:20:56.083Z,14.26
2022-11-13T15:23:42.863Z,14.08
2022-11-13T15:26:31.476Z,14.05
2022-11-13T15:29:18.228Z,13.96
2022-11-13T15:32:05.688Z,13.99
2022-11-13T15:34:53.817Z,13.85
2022-11-13T15:37:40.809Z,13.80
2022-11-13T15:40:27.784Z,13.45
2022-11-13T15:43:22.056Z,13.31
2022-11-13T15:46:17.852Z,13.20
2022-11-13T15:49:04.796Z,13.22
2022-11-13T15:51:53.133Z,12.90
2022-11-13T15:54:40.515Z,12.67
2022-11-13T15:57:30.593Z,12.50
2022-11-13T16:00:21.361Z,12.22
2022-11-13T16:03:11.687Z,12.11
2022-11-13T16:05:59.311Z,12.20
2022-11-13T16:08:48.260Z,12.08
2022-11-13T16:11:40.675Z,11.82
2022-11-13T16:14:28.669Z,11.67
2022-11-13T16:17:20.121Z,11.64
2022-11-13T16:20:11.218Z,11.41
2022-11-13T16:22:57.788Z,11.02
2022-11-13T16:25:47.743Z,10.98
2022-11-13T16:28:52.735Z,11.01
2022-11-13T16:31:41.775Z,10.79
2022-11-13T16:34:28.386Z,10.71
2022-11-13T16:37:17.394Z,10.68
2022-11-13T16:40:04.609Z,10.34
2022-11-13T16:42:53.014Z,9.97
2022-11-13T16:45:40.131Z,9.74
2022-11-13T16:48:27.057Z,9.69
2022-11-13T16:51:16.535Z,9.96
2022-11-13T16:54:03.466Z,9.96
2022-11-13T16:56:50.706Z,9.95
2022-11-13T16:59:39.240Z,9.80
2022-11-13T17:02:26.529Z,9.64
2022-11-13T17:05:15.590Z,9.55
2022-11-13T17:08:05.941Z,9.58
2022-11-13T17:10:57.972Z,9.57
2022-11-13T17:13:49.551Z,9.43
2022-11-13T17:16:37.786Z,9.44
2022-11-13T17:19:24.458Z,9.44
2022-11-13T17:22:11.962Z,9.33
2022-11-13T17:24:58.797Z,9.12
2022-11-13T17:27:46.831Z,9.10
2022-11-13T17:30:33.568Z,9.03
2022-11-13T17:33:21.642Z,8.71
2022-11-13T17:36:10.189Z,8.62
2022-11-13T17:38:57.342Z,8.67
2022-11-13T17:41:44.427Z,8.61
2022-11-13T17:44:31.090Z,8.60
2022-11-13T17:47:17.800Z,8.30
2022-11-13T17:50:07.940Z,8.22
2022-11-13T17:52:54.909Z,8.24
2022-11-13T17:55:42.853Z,8.21
2022-11-13T17:58:30.760Z,7.93
2022-11-13T18:01:20.613Z,7.65
2022-11-13T18:04:07.973Z,7.72
2022-11-13T18:06:56.476Z,7.81
2022-11-13T18:09:42.931Z,7.86
2022-11-13T18:12:29.820Z,7.77
2022-11-13T18:15:17.343Z,7.85
2022-11-13T18:18:05.857Z,8.01
2022-11-13T18:20:52.773Z,7.95
2022-11-13T18:23:41.989Z,7.86
2022-11-13T18:26:30.338Z,7.78
2022-11-13T18:29:18.284Z,7.70
2022-11-13T18:32:04.871Z,7.65
2022-11-13T18:34:52.098Z,7.73
2022-11-13T18:37:39.477Z,7.68
2022-11-13T18:40:28.597Z,7.63
2022-11-13T18:43:16.378Z,7.56
2022-11-13T18:46:05.874Z,7.67
2022-11-13T18:48:53.226Z,7.75
2022-11-13T18:51:40.007Z,7.72
2022-11-13T18:54:27.760Z,7.56
2022-11-13T18:57:16.020Z,7.56
2022-11-13T19:00:03.359Z,7.54
2022-11-13T19:02:53.178Z,7.26
2022-11-13T19:05:45.525Z,7.24
2022-11-13T19:08:36.999Z,6.91
2022-11-13T19:11:28.252Z,6.97
2022-11-13T19:14:19.846Z,6.87
2022-11-13T19:17:06.548Z,6.90
2022-11-13T19:19:53.271Z,6.78
2022-11-13T19:22:39.955Z,6.65
2022-11-13T19:25:26.794Z,6.69
2022-11-13T19:28:14.575Z,6.79
2022-11-13T19:31:07.249Z,6.92
2022-11-13T19:33:56.576Z,6.87
2022-11-13T19:36:46.298Z,6.67
2022-11-13T19:39:32.855Z,6.79
2022-11-13T19:42:19.671Z,6.62
2022-11-13T19:45:07.937Z,6.39
2022-11-13T19:47:55.906Z,6.45
2022-11-13T19:50:43.859Z,6.41
2022-11-13T19:53:32.238Z,6.24
2022-11-13T19:56:22.357Z,6.27
2022-11-13T19:59:12.326Z,6.29
2022-11-13T20:01:59.405Z,6.41
2022-11-13T20:04:47.715Z,6.47
2022-11-13T20:07:35.927Z,6.56
2022-11-13T20:10:23.015Z,6.55
2022-11-13T20:13:10.198Z,6.49
2022-11-13T20:15:57.636Z,6.21
2022-11-13T20:18:45.619Z,6.26
2022-11-13T20:21:33.983Z,6.03
2022-11-13T20:24:20.836Z,6.07
2022-11-13T20:27:08.148Z,6.19
2022-11-13T20:29:54.882Z,6.04
2022-11-13T20:32:42.272Z,6.17
2022-11-13T20:35:29.377Z,6.26
2022-11-13T20:38:17.782Z,6.26
2022-11-13T20:41:05.918Z,5.93
2022-11-13T20:43:55.718Z,5.87
2022-11-13T20:46:43.569Z,5.94
2022-11-13T20:49:31.992Z,6.09
2022-11-13T20:52:19.919Z,6.09
2022-11-13T20:55:11.141Z,5.99
2022-11-13T20:57:59.125Z,6.04
2022-11-13T21:00:47.551Z,5.93
2022-11-13T21:03:41.030Z,5.86
2022-11-13T21:06:30.018Z,5.98
2022-11-13T21:09:18.063Z,5.96
2022-11-13T21:12:09.467Z,5.98
2022-11-13T21:14:57.233Z,5.80
2022-11-13T21:17:44.068Z,5.69
2022-11-13T21:20:30.931Z,5.79
2022-11-13T21:23:17.556Z,5.62
2022-11-13T21:26:08.065Z,5.44
2022-11-13T21:28:57.366Z,5.22
2022-11-13T21:31:44.020Z,5.30
2022-11-13T21:34:30.671Z,5.41
2022-11-13T21:37:17.196Z,5.34
2022-11-13T21:40:04.122Z,5.31
2022-11-13T21:42:51.124Z,5.43
2022-11-13T21:45:39.088Z,5.31
2022-11-13T21:48:29.283Z,5.37
2022-11-13T21:51:19.596Z,5.30
2022-11-13T21:54:07.249Z,5.29
2022-11-13T21:56:53.946Z,5.22
2022-11-13T21:59:40.654Z,5.14
2022-11-13T22:02:28.820Z,5.10
2022-11-13T22:05:15.779Z,4.94
2022-11-13T22:08:02.566Z,4.84
2022-11-13T22:10:49.371Z,4.92
2022-11-13T22:13:36.141Z,4.89
2022-11-13T22:16:24.194Z,4.85
2022-11-13T22:19:18.699Z,4.86
2022-11-13T22:22:08.185Z,4.69
2022-11-13T22:24:56.025Z,4.55
2022-11-13T22:27:43.824Z,4.34
2022-11-13T22:30:31.300Z,4.35
2022-11-13T22:33:21.342Z,4.35
2022-11-13T22:36:12.800Z,4.24
2022-11-13T22:39:00.710Z,4.23
2022-11-13T22:41:47.527Z,4.23
2022-11-13T22:44:51.617Z,4.21
2022-11-13T22:47:41.746Z,4.14
2022-11-13T22:50:28.981Z,4.20
2022-11-13T22:53:17.390Z,4.25
2022-11-13T22:56:07.912Z,4.30
2022-11-13T22:58:57.063Z,4.47
2022-11-13T23:01:46.423Z,4.45
2022-11-13T23:04:33.705Z,4.47
2022-11-13T23:07:21.375Z,4.16
2022-11-13T23:10:11.571Z,4.11
2022-11-13T23:13:00.518Z,4.19
2022-11-13T23:15:49.353Z,4.23
2022-11-13T23:18:37.980Z,3.98
2022-11-13T23:21:26.605Z,3.97
2022-11-13T23:24:14.031Z,4.00
2022-11-13T23:27:03.601Z,4.12
2022-11-13T23:29:53.792Z,4.17
2022-11-13T23:32:42.021Z,3.95
2022-11-13T23:35:29.032Z,3.93
2022-11-13T23:38:17.394Z,3.81
2022-11-13T23:41:08.764Z,3.76
2022-11-13T23:44:12.813Z,3.63
2022-11-13T23:46:59.951Z,3.68
2022-11-13T23:49:47.052Z,3.74
2022-11-13T23:52:35.496Z,3.75
2022-11-13T23:55:23.566Z,3.76
2022-11-13T23:58:14.848Z,3.81
